Latest Weather Observations for Dennes Point

IDT60901

Issued at 6:21 pm EST Thursday 9 April 2020 (issued every 10 minutes, with the page automatically refreshed every 10 minutes)

About weather observations | Map of Hobart area stations | Latest observations for Hobart area | Other Formats
Station Details ID: 094255 Name: DENNES POINT Lat: -43.06 Lon: 147.36 Height: 5.67 m
Data from the previous 72 hours. | See also: Recent months at Dennes Point
Date/Time
EST
Temp
°C
App
Temp
°C
Dew
Point
°C
Rel
Hum
%
Delta-T
°C
Wind Press
QNH
hPa
Press
MSL
hPa
Rain since
9am
mm
Dir  Spd
km/h
Gust
km/h
Spd
kts
Gust
kts
09/06:00pm 13.5 12.4 9.9 79 1.8 SSW 6 9 3 5 1022.3 1022.3 0.0
09/05:30pm 14.5 13.2 10.1 75 2.3 SE 7 9 4 5 1022.4 1022.4 0.0
09/05:00pm 15.0 13.5 10.4 74 2.4 SSE 9 15 5 8 1022.5 1022.5 0.0
09/04:30pm 15.4 13.1 10.6 73 2.5 ESE 13 17 7 9 1022.8 1022.8 0.0
09/04:00pm 17.1 15.5 8.8 58 4.3 ESE 7 17 4 9 1023.1 1023.1 0.0
09/03:30pm 17.6 16.1 9.0 57 4.5 SE 7 9 4 5 1023.5 1023.5 0.0
09/03:00pm 16.6 14.5 9.8 64 3.5 ESE 11 13 6 7 1023.9 1023.9 0.0
09/02:30pm 16.5 14.6 10.4 67 3.2 ESE 11 13 6 7 1024.2 1024.2 0.0
09/02:00pm 16.6 15.0 10.2 66 3.4 ESE 9 13 5 7 1024.7 1024.7 0.0
09/01:30pm 16.4 14.8 8.1 58 4.2 E 6 7 3 4 1025.3 1025.3 0.0
09/01:00pm 15.9 14.8 8.6 62 3.7 ENE 4 6 2 3 1025.9 1025.9 0.0
09/12:30pm 15.5 14.5 8.7 64 3.5 ENE 4 6 2 3 1026.5 1026.5 0.0
09/12:00pm 14.9 13.6 9.3 69 2.9 ENE 6 6 3 3 1026.9 1026.9 0.0
09/11:30am 14.2 12.7 8.4 68 2.9 ENE 6 6 3 3 1027.5 1027.5 0.0
09/11:00am 14.1 13.0 8.5 69 2.8 NE 4 6 2 3 1027.9 1027.9 0.0
09/10:30am 13.4 11.8 8.0 70 2.7 NNE 6 7 3 4 1028.2 1028.2 0.0
09/10:00am 13.0 11.5 8.5 74 2.2 NE 6 7 3 4 1028.5 1028.5 0.0
09/09:30am 12.5 10.9 8.0 74 2.2 ENE 6 7 3 4 1028.8 1028.8 0.0
09/09:00am 11.6 10.3 7.5 76 2.0 ENE 4 7 2 4 1029.0 1029.0 0.0
09/08:30am 10.6 10.2 8.4 86 1.1 CALM 0 2 0 1 1029.1 1029.1 0.0
09/08:00am 8.9 7.2 7.4 90 0.7 SSW 6 6 3 3 1029.3 1029.3 0.0
09/07:30am 7.8 5.6 6.4 91 0.6 SSW 7 7 4 4 1029.5 1029.5 0.0
09/07:00am 7.1 4.4 5.7 91 0.6 SSW 9 9 5 5 1029.2 1029.2 0.0
09/06:30am 7.1 4.8 5.7 91 0.6 SSW 7 9 4 5 1029.1 1029.1 0.0
09/06:00am 7.5 5.8 5.8 89 0.8 SSW 4 6 2 3 1029.0 1029.0 0.0
09/05:30am 6.8 4.6 5.4 91 0.6 SSW 6 7 3 4 1029.0 1029.0 0.0
09/05:00am 6.2 3.7 4.7 90 0.6 SSW 7 7 4 4 1029.1 1029.1 0.0
09/04:30am 6.9 4.1 5.1 88 0.8 S 9 9 5 5 1028.9 1028.9 0.0
09/04:00am 7.4 4.7 5.4 87 0.9 S 9 9 5 5 1028.9 1028.9 0.0
09/03:30am 7.5 4.5 5.8 89 0.8 S 11 13 6 7 1029.2 1029.2 0.0
09/03:00am 7.4 5.1 5.5 88 0.8 SSW 7 9 4 5 1029.4 1029.4 0.0
09/02:30am 7.5 4.8 5.5 87 0.9 S 9 11 5 6 1029.7 1029.7 0.0
09/02:00am 7.6 5.3 5.6 87 0.9 SSW 7 9 4 5 1029.9 1029.9 0.0
09/01:30am 8.2 5.6 6.0 86 1.0 SSW 9 9 5 5 1030.0 1030.0 0.0
09/01:00am 7.8 5.1 5.6 86 1.0 S 9 9 5 5 1030.2 1030.2 0.0
09/12:30am 7.8 4.8 5.8 87 0.9 S 11 13 6 7 1030.3 1030.3 0.0
09/12:00am 8.2 4.8 6.0 86 1.0 S 13 15 7 8 1030.6 1030.6 0.0
 
Date/Time
EST
Temp
°C
App
Temp
°C
Dew
Point
°C
Rel
Hum
%
Delta-T
°C
Wind Press
QNH
hPa
Press
MSL
hPa
Rain since
9am
mm
Dir  Spd
km/h
Gust
km/h
Spd
kts
Gust
kts
08/11:30pm 8.4 5.8 5.9 84 1.1 S 9 11 5 6 1030.8 1030.8 0.0
08/11:00pm 8.6 6.0 6.1 84 1.1 S 9 11 5 6 1030.9 1030.9 0.0
08/10:30pm 8.4 5.8 6.2 86 1.0 SSW 9 11 5 6 1031.0 1031.0 0.0
08/10:00pm 8.7 6.1 6.3 85 1.1 SSW 9 11 5 6 1031.1 1031.1 0.0
08/09:30pm 9.0 7.0 6.3 83 1.2 SSW 6 9 3 5 1031.0 1031.0 0.0
08/09:00pm 8.9 6.4 4.9 76 1.8 SSW 7 9 4 5 1030.8 1030.8 0.0
08/08:30pm 9.9 7.7 5.1 72 2.2 SSE 6 7 3 4 1030.5 1030.5 0.0
08/08:00pm 10.2 7.7 5.0 70 2.3 SSE 7 7 4 4 1030.1 1030.1 0.0
08/07:30pm 10.7 8.4 5.5 70 2.4 SSE 7 9 4 5 1030.1 1030.1 0.0
08/07:00pm 10.4 8.2 5.2 70 2.3 SE 6 7 3 4 1029.9 1029.9 0.0
08/06:30pm 10.9 8.7 5.4 69 2.5 SE 6 9 3 5 1029.6 1029.6 0.0
08/06:00pm 11.3 8.6 5.6 68 2.6 SE 9 11 5 6 1029.4 1029.4 0.0
08/05:30pm 11.1 8.7 5.4 68 2.6 SE 7 11 4 6 1029.0 1029.0 0.0
08/05:00pm 12.0 9.4 5.9 66 2.8 SE 9 15 5 8 1028.8 1028.8 0.0
08/04:30pm 12.6 8.9 6.4 66 2.9 ESE 15 19 8 10 1028.7 1028.7 0.0
08/04:00pm 12.8 9.0 5.9 63 3.2 ESE 15 22 8 12 1028.7 1028.7 0.0
08/03:30pm 13.3 10.0 6.4 63 3.3 ESE 13 19 7 10 1028.7 1028.7 0.0
08/03:00pm 13.7 10.2 7.0 64 3.2 ESE 15 20 8 11 1028.4 1028.4 0.0
08/02:30pm 13.7 9.9 5.8 59 3.7 ESE 15 20 8 11 1028.5 1028.5 0.0
08/02:00pm 14.4 11.7 5.7 56 4.1 SSE 9 17 5 9 1028.4 1028.4 0.0
08/01:30pm 13.9 10.5 5.8 58 3.8 ESE 13 20 7 11 1028.5 1028.5 0.0
08/01:00pm 14.3 11.7 6.2 58 3.9 ESE 9 20 5 11 1028.7 1028.7 0.0
08/12:30pm 13.9 11.1 5.3 56 4.0 WSW 9 15 5 8 1028.9 1028.9 0.0
08/12:00pm 13.9 11.6 5.5 57 3.9 SW 7 15 4 8 1029.0 1029.0 0.0
08/11:30am 13.1 9.2 5.5 60 3.6 WSW 15 19 8 10 1029.0 1029.0 0.0
08/11:00am 12.9 9.0 5.3 60 3.5 WSW 15 20 8 11 1029.0 1029.0 0.0
08/10:30am 12.9 9.4 5.3 60 3.5 SSW 13 20 7 11 1028.9 1028.9 0.0
08/10:00am 12.0 9.0 5.9 66 2.8 SW 11 19 6 10 1028.9 1028.9 0.0
08/09:30am 12.1 9.3 7.0 71 2.4 SSW 11 15 6 8 1028.6 1028.6 0.0
08/09:00am 11.7 9.4 7.6 76 2.0 SSW 9 15 5 8 1028.2 1028.2 0.6
08/08:30am 11.4 9.5 7.5 77 1.9 SSW 7 11 4 6 1027.9 1027.9 0.6
08/08:00am 11.2 9.0 7.9 80 1.6 SW 9 13 5 7 1027.5 1027.5 0.6
08/07:30am 10.9 8.8 8.3 84 1.3 WSW 9 13 5 7 1026.9 1026.9 0.6
08/07:00am 10.5 8.4 8.1 85 1.2 WSW 9 15 5 8 1026.6 1026.6 0.6
08/06:30am 10.1 8.0 8.2 88 0.9 SW 9 15 5 8 1026.3 1026.3 0.6
08/06:00am 9.8 7.7 8.2 90 0.8 SSW 9 11 5 6 1026.0 1026.0 0.6
08/05:30am 9.9 8.4 8.5 91 0.7 SW 6 6 3 3 1025.7 1025.7 0.6
08/05:00am 10.1 7.6 8.4 89 0.8 SW 11 15 6 8 1025.5 1025.5 0.4
08/04:30am 10.2 8.1 8.1 87 1.0 SSW 9 13 5 7 1025.1 1025.1 0.4
08/04:00am 10.5 8.1 7.2 80 1.6 SW 9 13 5 7 1024.8 1024.8 0.2
08/03:30am 10.3 7.5 7.0 80 1.6 SSW 11 15 6 8 1024.5 1024.5 0.2
08/03:00am 10.3 7.9 7.2 81 1.5 SSW 9 11 5 6 1024.5 1024.5 0.2
08/02:30am 9.9 7.9 7.2 83 1.3 SW 7 9 4 5 1024.4 1024.4 0.2
08/02:00am 10.0 8.0 7.1 82 1.4 SW 7 9 4 5 1024.5 1024.5 0.2
08/01:30am 10.5 8.1 7.2 80 1.6 SSW 9 13 5 7 1024.4 1024.4 0.2
08/01:00am 10.2 7.5 7.3 82 1.4 SW 11 15 6 8 1024.1 1024.1 0.2
08/12:30am 9.7 7.3 6.8 82 1.4 SSW 9 11 5 6 1023.9 1023.9 0.2
08/12:00am 10.1 7.7 7.0 81 1.5 SSW 9 13 5 7 1023.9 1023.9 0.2
 
Date/Time
EST
Temp
°C
App
Temp
°C
Dew
Point
°C
Rel
Hum
%
Delta-T
°C
Wind Press
QNH
hPa
Press
MSL
hPa
Rain since
9am
mm
Dir  Spd
km/h
Gust
km/h
Spd
kts
Gust
kts
07/11:30pm 10.9 7.6 8.0 82 1.4 SSW 15 22 8 12 1023.9 1023.9 0.2
07/11:00pm 10.9 8.9 8.5 85 1.2 SSW 9 17 5 9 1023.6 1023.6 0.2
07/10:30pm 10.7 8.7 8.8 88 0.9 SSW 9 11 5 6 1023.5 1023.5 0.2
07/10:00pm 10.8 8.1 8.9 88 0.9 SSW 13 19 7 10 1023.3 1023.3 0.2
07/09:30pm 10.8 7.7 8.9 88 0.9 SSW 15 24 8 13 1023.1 1023.1 0.2
07/09:00pm 11.1 7.8 9.4 89 0.8 SSW 17 26 9 14 1022.8 1022.8 0.2
07/08:30pm 11.3 7.6 9.6 89 0.9 S 19 28 10 15 1022.5 1022.5 0.0
07/08:00pm 12.0 8.1 9.6 85 1.2 S 20 33 11 18 1022.1 1022.1 0.0
07/07:51pm 12.2 8.3 9.6 84 1.3 S 20 35 11 19 1021.9 1021.9 0.0
07/07:30pm 12.7 10.9 9.3 80 1.7 SSE 9 15 5 8 1021.6 1021.6 0.0
07/07:00pm 13.2 11.8 9.5 78 1.9 S 7 13 4 7 1021.2 1021.2 0.0
07/06:30pm 13.0 12.3 8.5 74 2.2 SSW 2 6 1 3 1020.8 1020.8 0.0
07/06:00pm 13.6 12.3 9.3 75 2.2 SE 6 9 3 5 1020.4 1020.4 0.0
07/05:30pm 14.1 12.1 8.7 70 2.7 SW 9 13 5 7 1020.2 1020.2 0.0
07/05:00pm 15.0 11.1 8.7 66 3.2 WSW 19 26 10 14 1019.9 1019.9 0.0
07/04:30pm 15.2 10.9 8.0 62 3.6 W 20 24 11 13 1019.7 1019.7 0.0
07/04:00pm 15.5 11.5 8.3 62 3.6 WSW 19 20 10 11 1019.8 1019.8 0.0
07/03:30pm 15.9 11.9 8.9 63 3.6 W 20 28 11 15 1019.9 1019.9 0.0
07/03:00pm 17.0 12.7 9.2 60 4.0 W 22 33 12 18 1019.9 1019.9 0.0
07/02:30pm 15.6 11.6 8.1 61 3.8 W 19 24 10 13 1020.0 1020.0 0.0
07/02:00pm 16.7 11.9 8.9 60 4.0 W 24 32 13 17 1020.0 1020.0 0.0
07/01:30pm 15.9 11.9 9.1 64 3.5 W 20 28 11 15 1020.4 1020.4 0.0
07/01:00pm 15.4 10.9 8.6 64 3.4 W 22 28 12 15 1020.7 1020.7 0.0
07/12:30pm 15.4 11.3 7.9 61 3.8 W 19 22 10 12 1021.0 1021.0 0.0
07/12:00pm 16.1 13.4 8.8 62 3.7 W 13 19 7 10 1021.2 1021.2 0.0
07/11:30am 15.9 12.4 8.6 62 3.7 W 17 22 9 12 1021.2 1021.2 0.0
07/11:00am 15.5 12.1 9.2 66 3.2 W 17 24 9 13 1021.4 1021.4 0.0
07/10:30am 15.0 13.2 7.1 59 3.9 WSW 6 9 3 5 1021.6 1021.6 0.0
07/10:00am 14.7 12.3 7.0 60 3.7 W 9 15 5 8 1021.7 1021.7 0.0
07/09:30am 14.3 11.2 7.4 63 3.4 NW 13 19 7 10 1021.7 1021.7 0.0
07/09:00am 13.0 10.7 7.5 69 2.7 N 9 15 5 8 1021.9 1021.9 0.0
07/08:30am 12.3 9.8 6.6 68 2.7 N 9 11 5 6 1021.8 1021.8 0.0
07/08:00am 11.4 7.7 6.3 71 2.4 N 15 19 8 10 1021.6 1021.6 0.0
07/07:30am 11.3 7.7 6.6 73 2.2 N 15 19 8 10 1021.4 1021.4 0.0
07/07:00am 9.8 8.6 4.6 70 2.3 CALM 0 0 0 0 1021.6 1021.6 0.0
07/06:30am 9.8 7.8 4.2 68 2.5 W 4 6 2 3 1021.4 1021.4 0.0
07/06:00am 9.9 7.5 4.3 68 2.5 WNW 6 9 3 5 1021.4 1021.4 0.0
07/05:30am 9.8 6.9 4.4 69 2.4 WNW 9 11 5 6 1021.3 1021.3 0.0
07/05:00am 8.9 5.9 3.9 71 2.2 WSW 9 13 5 7 1021.0 1021.0 0.0
07/04:30am 9.1 5.8 4.3 72 2.1 W 11 15 6 8 1020.9 1020.9 0.0
07/04:00am 9.0 6.4 4.2 72 2.1 W 7 11 4 6 1020.8 1020.8 0.0
07/03:30am 9.8 6.9 4.6 70 2.3 W 9 15 5 8 1020.9 1020.9 0.0
07/03:00am 10.0 6.4 5.0 71 2.2 WSW 13 19 7 10 1021.0 1021.0 0.0
07/02:30am 10.3 6.6 4.7 68 2.5 WSW 13 19 7 10 1021.2 1021.2 0.0
07/02:00am 10.9 6.1 4.8 66 2.7 WSW 19 28 10 15 1021.2 1021.2 0.0
07/01:30am 11.3 6.5 4.5 63 3.1 W 19 24 10 13 1021.2 1021.2 0.0
07/01:00am 11.2 6.5 5.1 66 2.8 W 19 24 10 13 1021.1 1021.1 0.0
07/12:30am 11.2 6.4 4.9 65 2.9 W 19 24 10 13 1021.2 1021.2 0.0
07/12:00am 11.3 7.0 5.2 66 2.8 WSW 17 22 9 12 1021.1 1021.1 0.0
 
Date/Time
EST
Temp
°C
App
Temp
°C
Dew
Point
°C
Rel
Hum
%
Delta-T
°C
Wind Press
QNH
hPa
Press
MSL
hPa
Rain since
9am
mm
Dir  Spd
km/h
Gust
km/h
Spd
kts
Gust
kts
06/11:30pm 11.6 6.8 5.7 67 2.7 W 20 28 11 15 1021.0 1021.0 0.0
06/11:00pm 11.4 7.2 5.7 68 2.6 WSW 17 20 9 11 1021.2 1021.2 0.0
06/10:30pm 11.2 6.6 5.7 69 2.5 WSW 19 24 10 13 1021.1 1021.1 0.0
06/10:00pm 10.8 6.4 4.9 67 2.7 W 17 20 9 11 1020.9 1020.9 0.0
06/09:30pm 11.1 7.5 5.2 67 2.7 W 13 17 7 9 1020.8 1020.8 0.0
06/09:00pm 11.5 7.1 4.5 62 3.1 W 17 22 9 12 1020.7 1020.7 0.0
06/08:30pm 11.6 6.9 5.0 64 3.0 WSW 19 28 10 15 1020.4 1020.4 0.0
06/08:00pm 11.5 6.7 4.9 64 3.0 WSW 19 24 10 13 1020.1 1020.1 0.0
06/07:30pm 11.4 6.1 4.8 64 3.0 WSW 22 35 12 19 1019.6 1019.6 0.0
06/07:00pm 11.5 5.4 4.9 64 3.0 WSW 26 33 14 18 1019.2 1019.2 0.0
06/06:30pm 11.9 5.9 5.3 64 3.0 WSW 26 33 14 18 1018.7 1018.7 0.0

Latest Capital City Observations: Canberra | Sydney | Melbourne | Brisbane | Adelaide | Perth | Hobart | Darwin

Other formats

Comma delimited format used in spreadsheet applications
http://www.bom.gov.au/fwo/IDT60901/IDT60901.94988.axf

JavaScript Object Notation format (JSON) in row-major order
http://www.bom.gov.au/fwo/IDT60901/IDT60901.94988.json

Data quality

Most of these data are generated automatically and are frequently updated. Quality checks on data are not normally performed. It is possible for incorrect values to appear. Refer to information at About Latest Weather Observations and please check the disclaimer before using these data.